Dalian Highway — 3FYE5 — position and weather

sailwx.info

Track history (hours):
 
Tides and Currents Weather Stations Pressure Air Temp Water Temp Dewpoint Dewpoint Depression Visibility Wind Speed Wind Dir Waves Ship Positions

Dalian Highway

Last reported at 2018-Jun-22 03:00 UTC. Time now 2018-Jun-22 03:07 UTC.
Position N 53°20' E 007°10'.

Length 199 m; draft 8.8 m.

Type: Cargo ship. MMSI: 357694000.

Date/timePositionNaut miles runAvg speedWind from/ knotsBaromVisibWave heightAir tempDewpointWater temp
2018-Jun-22 03:00N 53°20' E 007°10'0 0.0
2018-Jun-22 02:30N 53°20' E 007°10'0 0.0
2018-Jun-22 01:51N 53°20' E 007°10'0 0.0
2018-Jun-22 01:30N 53°20' E 007°10'0 0.0
2018-Jun-22 01:00N 53°20' E 007°10'0 0.0
2018-Jun-22 00:27N 53°20' E 007°10'0 0.0
2018-Jun-22 00:00N 53°20' E 007°10'0 0.0
2018-Jun-21 23:27N 53°20' E 007°10'0 0.0
2018-Jun-21 23:00N 53°20' E 007°10'0 0.0
2018-Jun-21 22:30N 53°20' E 007°10'0 0.0
2018-Jun-21 22:00N 53°20' E 007°10'0 0.0
2018-Jun-21 21:30N 53°20' E 007°10'0 0.0
2018-Jun-21 21:00N 53°20' E 007°10'0 0.0
2018-Jun-21 20:30N 53°20' E 007°10'0 0.0
2018-Jun-21 19:57N 53°20' E 007°10'0 0.0
2018-Jun-21 19:27N 53°20' E 007°10'0 0.0
2018-Jun-21 19:00N 53°20' E 007°10'0 0.0
2018-Jun-21 18:27N 53°20' E 007°10'0 0.0
2018-Jun-21 18:00N 53°20' E 007°10'0 0.0
2018-Jun-21 17:30N 53°20' E 007°10'0 0.0
2018-Jun-21 17:00N 53°20' E 007°10'0 0.0
2018-Jun-21 16:30N 53°20' E 007°10'0 0.0
2018-Jun-21 15:54N 53°20' E 007°10'0 0.0
2018-Jun-21 15:30N 53°20' E 007°10'0 0.0
2018-Jun-21 14:57N 53°20' E 007°10'0 0.0
2018-Jun-21 14:30N 53°20' E 007°10'0 0.0
2018-Jun-21 14:00N 53°20' E 007°10'0 0.0
2018-Jun-21 13:30N 53°20' E 007°10'0 0.0
2018-Jun-21 13:00N 53°20' E 007°10'0 0.0
2018-Jun-21 12:30N 53°20' E 007°10'0 0.0
2018-Jun-21 11:51N 53°20' E 007°10'0 0.0
2018-Jun-21 11:30N 53°20' E 007°10'0 0.0
2018-Jun-21 11:00N 53°20' E 007°10'0 0.0
2018-Jun-21 10:28N 53°20' E 007°10'0 0.0
2018-Jun-21 09:58N 53°20' E 007°10'0 0.0
2018-Jun-21 09:28N 53°20' E 007°10'0 0.0
2018-Jun-21 08:49N 53°20' E 007°10'0 0.0
2018-Jun-21 08:28N 53°20' E 007°10'0 0.0
2018-Jun-21 07:58N 53°20' E 007°10'0 0.0
2018-Jun-21 07:28N 53°20' E 007°10'0 0.0
2018-Jun-21 06:58N 53°20' E 007°10'0 0.0
2018-Jun-21 06:28N 53°20' E 007°10'0 0.0
2018-Jun-21 05:58N 53°20' E 007°10'0 0.0
2018-Jun-21 05:28N 53°20' E 007°10'0 0.0
2018-Jun-21 04:58N 53°20' E 007°10'0 0.0
2018-Jun-21 04:28N 53°20' E 007°10'0 0.0
2018-Jun-21 03:57N 53°20' E 007°10'1 1.8
2018-Jun-21 03:30N 53°20' E 007°08'5 9.2
2018-Jun-21 03:00N 53°19' E 007°01'612.5
2018-Jun-21 02:30N 53°25' E 006°56'714.4
2018-Jun-21 02:00N 53°30' E 006°48'2015.2
2018-Jun-21 00:40N 53°39' E 006°16'6 3.1
2018-Jun-20 22:42N 53°39' E 006°06'0 1.2
2018-Jun-20 22:25N 53°39' E 006°05'1 1.2
2018-Jun-20 21:55N 53°39' E 006°05'0 0.8
2018-Jun-20 21:29N 53°39' E 006°04'2 3.6
2018-Jun-20 20:47N 53°39' E 006°00'411.0
2018-Jun-20 20:28N 53°38' E 005°54'715.0
2018-Jun-20 20:00N 53°36' E 005°43'815.0
2018-Jun-20 19:30N 53°34' E 005°31'714.8
2018-Jun-20 19:00N 53°32' E 005°19'714.8
2018-Jun-20 18:30N 53°30' E 005°07'714.9
2018-Jun-20 18:00N 53°28' E 004°56'714.8
2018-Jun-20 17:30N 53°24' E 004°45'714.8
2018-Jun-20 17:01N 53°18' E 004°39'815.1
2018-Jun-20 16:30N 53°11' E 004°33'715.0
2018-Jun-20 16:00N 53°05' E 004°26'815.1
2018-Jun-20 15:30N 52°59' E 004°18'714.9
2018-Jun-20 15:00N 52°52' E 004°14'714.9
2018-Jun-20 14:30N 52°46' E 004°07'714.9
2018-Jun-20 14:00N 52°40' E 003°60'714.7
2018-Jun-20 13:30N 52°35' E 003°51'714.7
2018-Jun-20 13:00N 52°30' E 003°42'815.1
2018-Jun-20 12:30N 52°24' E 003°33'815.3
2018-Jun-20 12:00N 52°19' E 003°24'815.5
2018-Jun-20 11:30N 52°13' E 003°15'815.7
2018-Jun-20 11:00N 52°08' E 003°06'816.1
2018-Jun-20 10:30N 52°02' E 002°58'816.3
2018-Jun-20 10:00N 51°56' E 002°49'916.6
2018-Jun-20 09:29N 51°49' E 002°40'816.7
2018-Jun-20 08:58N 51°43' E 002°31'816.9
2018-Jun-20 08:29N 51°37' E 002°22'817.2
2018-Jun-20 08:00N 51°30' E 002°13'917.4
2018-Jun-20 07:30N 51°24' E 002°04'917.3
2018-Jun-20 07:00N 51°17' E 001°55'917.7
2018-Jun-20 06:30N 51°11' E 001°46'917.9
2018-Jun-20 06:00N 51°03' E 001°37'1020.5
2018-Jun-20 05:30N 50°56' E 001°27'1019.8
2018-Jun-20 05:00N 50°46' E 001°23'918.2
2018-Jun-20 04:30N 50°39' E 001°14'1018.7
2018-Jun-20 03:58N 50°31' E 001°04'917.8
2018-Jun-20 03:29N 50°26' E 000°52'1018.6
2018-Jun-20 02:57N 50°23' E 000°38'918.9
2018-Jun-20 02:30N 50°21' E 000°25'1019.4
2018-Jun-20 02:00N 50°19' E 000°10'1119.6
2018-Jun-20 01:26N 50°15' W 000°06'820.0
2018-Jun-20 01:00N 50°13' W 000°19'1020.0
2018-Jun-20 00:30N 50°10' W 000°34'1519.9
2018-Jun-19 23:44N 50°05' W 000°57'719.7
2018-Jun-19 23:22N 50°03' W 001°08'719.5
2018-Jun-19 23:00N 50°02' W 001°18'1019.0
2018-Jun-19 22:28N 49°60' W 001°34'1018.3
2018-Jun-19 21:56N 49°58' W 001°49'2617.0
2018-Jun-19 20:23N 49°51' W 002°29'816.2
2018-Jun-19 19:55N 49°49' W 002°40'716.3
2018-Jun-19 19:30N 49°48' W 002°50'916.1
2018-Jun-19 18:56N 49°45' W 003°04'716.2
2018-Jun-19 18:30N 49°44' W 003°14'816.2
2018-Jun-19 18:00N 49°42' W 003°27'1016.3
2018-Jun-19 17:24N 49°43' W 003°42'1616.4
2018-Jun-19 16:25N 49°42' W 004°07'2916.6
2018-Jun-19 14:40N 49°39' W 004°52'516.6
2018-Jun-19 14:20N 49°38' W 004°60'1216.9
2018-Jun-19 13:39N 49°37' W 005°18'8016.8
2018-Jun-19 08:53N 49°38' W 007°21'  
Track history (hours):
 
Tides and Currents Weather Stations Pressure Air Temp Water Temp Dewpoint Dewpoint Depression Visibility Wind Speed Wind Dir Waves Ship Positions

Dalian Highway

Last reported at 2018-Jun-22 03:00 UTC. Time now 2018-Jun-22 03:07 UTC.
Position N 53°20' E 007°10'.

Length 199 m; draft 8.8 m.

Type: Cargo ship. MMSI: 357694000.

Date/timePositionNaut miles runAvg speedWind from/ knotsBaromVisibWave heightAir tempDewpointWater temp
2018-Jun-22 03:00N 53°20' E 007°10'0 0.0
2018-Jun-22 02:30N 53°20' E 007°10'0 0.0
2018-Jun-22 01:51N 53°20' E 007°10'0 0.0
2018-Jun-22 01:30N 53°20' E 007°10'0 0.0
2018-Jun-22 01:00N 53°20' E 007°10'0 0.0
2018-Jun-22 00:27N 53°20' E 007°10'0 0.0
2018-Jun-22 00:00N 53°20' E 007°10'0 0.0
2018-Jun-21 23:27N 53°20' E 007°10'0 0.0
2018-Jun-21 23:00N 53°20' E 007°10'0 0.0
2018-Jun-21 22:30N 53°20' E 007°10'0 0.0
2018-Jun-21 22:00N 53°20' E 007°10'0 0.0
2018-Jun-21 21:30N 53°20' E 007°10'0 0.0
2018-Jun-21 21:00N 53°20' E 007°10'0 0.0
2018-Jun-21 20:30N 53°20' E 007°10'0 0.0
2018-Jun-21 19:57N 53°20' E 007°10'0 0.0
2018-Jun-21 19:27N 53°20' E 007°10'0 0.0
2018-Jun-21 19:00N 53°20' E 007°10'0 0.0
2018-Jun-21 18:27N 53°20' E 007°10'0 0.0
2018-Jun-21 18:00N 53°20' E 007°10'0 0.0
2018-Jun-21 17:30N 53°20' E 007°10'0 0.0
2018-Jun-21 17:00N 53°20' E 007°10'0 0.0
2018-Jun-21 16:30N 53°20' E 007°10'0 0.0
2018-Jun-21 15:54N 53°20' E 007°10'0 0.0
2018-Jun-21 15:30N 53°20' E 007°10'0 0.0
2018-Jun-21 14:57N 53°20' E 007°10'0 0.0
2018-Jun-21 14:30N 53°20' E 007°10'0 0.0
2018-Jun-21 14:00N 53°20' E 007°10'0 0.0
2018-Jun-21 13:30N 53°20' E 007°10'0 0.0
2018-Jun-21 13:00N 53°20' E 007°10'0 0.0
2018-Jun-21 12:30N 53°20' E 007°10'0 0.0
2018-Jun-21 11:51N 53°20' E 007°10'0 0.0
2018-Jun-21 11:30N 53°20' E 007°10'0 0.0
2018-Jun-21 11:00N 53°20' E 007°10'0 0.0
2018-Jun-21 10:28N 53°20' E 007°10'0 0.0
2018-Jun-21 09:58N 53°20' E 007°10'0 0.0
2018-Jun-21 09:28N 53°20' E 007°10'0 0.0
2018-Jun-21 08:49N 53°20' E 007°10'0 0.0
2018-Jun-21 08:28N 53°20' E 007°10'0 0.0
2018-Jun-21 07:58N 53°20' E 007°10'0 0.0
2018-Jun-21 07:28N 53°20' E 007°10'0 0.0
2018-Jun-21 06:58N 53°20' E 007°10'0 0.0
2018-Jun-21 06:28N 53°20' E 007°10'0 0.0
2018-Jun-21 05:58N 53°20' E 007°10'0 0.0
2018-Jun-21 05:28N 53°20' E 007°10'0 0.0
2018-Jun-21 04:58N 53°20' E 007°10'0 0.0
2018-Jun-21 04:28N 53°20' E 007°10'0 0.0
2018-Jun-21 03:57N 53°20' E 007°10'1 1.8
2018-Jun-21 03:30N 53°20' E 007°08'5 9.2
2018-Jun-21 03:00N 53°19' E 007°01'612.5
2018-Jun-21 02:30N 53°25' E 006°56'714.4
2018-Jun-21 02:00N 53°30' E 006°48'2015.2
2018-Jun-21 00:40N 53°39' E 006°16'6 3.1
2018-Jun-20 22:42N 53°39' E 006°06'0 1.2
2018-Jun-20 22:25N 53°39' E 006°05'1 1.2
2018-Jun-20 21:55N 53°39' E 006°05'0 0.8
2018-Jun-20 21:29N 53°39' E 006°04'2 3.6
2018-Jun-20 20:47N 53°39' E 006°00'411.0
2018-Jun-20 20:28N 53°38' E 005°54'715.0
2018-Jun-20 20:00N 53°36' E 005°43'815.0
2018-Jun-20 19:30N 53°34' E 005°31'714.8
2018-Jun-20 19:00N 53°32' E 005°19'714.8
2018-Jun-20 18:30N 53°30' E 005°07'714.9
2018-Jun-20 18:00N 53°28' E 004°56'714.8
2018-Jun-20 17:30N 53°24' E 004°45'714.8
2018-Jun-20 17:01N 53°18' E 004°39'815.1
2018-Jun-20 16:30N 53°11' E 004°33'715.0
2018-Jun-20 16:00N 53°05' E 004°26'815.1
2018-Jun-20 15:30N 52°59' E 004°18'714.9
2018-Jun-20 15:00N 52°52' E 004°14'714.9
2018-Jun-20 14:30N 52°46' E 004°07'714.9
2018-Jun-20 14:00N 52°40' E 003°60'714.7
2018-Jun-20 13:30N 52°35' E 003°51'714.7
2018-Jun-20 13:00N 52°30' E 003°42'815.1
2018-Jun-20 12:30N 52°24' E 003°33'815.3
2018-Jun-20 12:00N 52°19' E 003°24'815.5
2018-Jun-20 11:30N 52°13' E 003°15'815.7
2018-Jun-20 11:00N 52°08' E 003°06'816.1
2018-Jun-20 10:30N 52°02' E 002°58'816.3
2018-Jun-20 10:00N 51°56' E 002°49'916.6
2018-Jun-20 09:29N 51°49' E 002°40'816.7
2018-Jun-20 08:58N 51°43' E 002°31'816.9
2018-Jun-20 08:29N 51°37' E 002°22'817.2
2018-Jun-20 08:00N 51°30' E 002°13'917.4
2018-Jun-20 07:30N 51°24' E 002°04'917.3
2018-Jun-20 07:00N 51°17' E 001°55'917.7
2018-Jun-20 06:30N 51°11' E 001°46'917.9
2018-Jun-20 06:00N 51°03' E 001°37'1020.5
2018-Jun-20 05:30N 50°56' E 001°27'1019.8
2018-Jun-20 05:00N 50°46' E 001°23'918.2
2018-Jun-20 04:30N 50°39' E 001°14'1018.7
2018-Jun-20 03:58N 50°31' E 001°04'917.8
2018-Jun-20 03:29N 50°26' E 000°52'1018.6
2018-Jun-20 02:57N 50°23' E 000°38'918.9
2018-Jun-20 02:30N 50°21' E 000°25'1019.4
2018-Jun-20 02:00N 50°19' E 000°10'1119.6
2018-Jun-20 01:26N 50°15' W 000°06'820.0
2018-Jun-20 01:00N 50°13' W 000°19'1020.0
2018-Jun-20 00:30N 50°10' W 000°34'1519.9
2018-Jun-19 23:44N 50°05' W 000°57'719.7
2018-Jun-19 23:22N 50°03' W 001°08'719.5
2018-Jun-19 23:00N 50°02' W 001°18'1019.0
2018-Jun-19 22:28N 49°60' W 001°34'1018.3
2018-Jun-19 21:56N 49°58' W 001°49'2617.0
2018-Jun-19 20:23N 49°51' W 002°29'816.2
2018-Jun-19 19:55N 49°49' W 002°40'716.3
2018-Jun-19 19:30N 49°48' W 002°50'916.1
2018-Jun-19 18:56N 49°45' W 003°04'716.2
2018-Jun-19 18:30N 49°44' W 003°14'816.2
2018-Jun-19 18:00N 49°42' W 003°27'1016.3
2018-Jun-19 17:24N 49°43' W 003°42'1616.4
2018-Jun-19 16:25N 49°42' W 004°07'2916.6
2018-Jun-19 14:40N 49°39' W 004°52'516.6
2018-Jun-19 14:20N 49°38' W 004°60'1216.9
2018-Jun-19 13:39N 49°37' W 005°18'8016.8
2018-Jun-19 08:53N 49°38' W 007°21'  

Dump ship's entire track history